Time;durP1;ratioP1;P1;durP2;ratioP2;P2;SDS_P1;SDS_P2;PMS_P1;PMS_P2;Temp;Humidity;BMP_temperature;BMP_pressure;BME280_temperature;BME280_humidity;BME280_pressure;Samples;Min_cycle;Max_cycle;Signal;HPM_P1;HPM_P2
2021/04/07 00:01:09;;;;;;;9.05;4.57;;;0.00;34.20;;;;;;5017400;28;20053;-70
2021/04/07 00:03:36;;;;;;;6.82;4.90;;;0.00;34.80;;;;;;5012908;28;20439;-70
2021/04/07 00:06:04;;;;;;;5.95;4.45;;;-0.10;33.80;;;;;;5013929;28;20046;-70
2021/04/07 00:08:32;;;;;;;9.32;5.00;;;-0.10;34.60;;;;;;5013545;28;20065;-70
2021/04/07 00:10:58;;;;;;;7.25;4.97;;;-0.10;34.20;;;;;;5015825;28;20048;-70
2021/04/07 00:13:25;;;;;;;8.52;5.30;;;0.10;35.80;;;;;;5011517;28;20099;-70
2021/04/07 00:15:52;;;;;;;7.35;4.32;;;-0.10;33.80;;;;;;5009786;28;20053;-70
2021/04/07 00:18:19;;;;;;;8.27;4.45;;;-0.10;33.80;;;;;;5010998;28;20076;-69
2021/04/07 00:20:47;;;;;;;7.57;4.53;;;0.00;34.30;;;;;;5013834;28;20046;-69
2021/04/07 00:23:14;;;;;;;8.57;4.90;;;-0.10;34.50;;;;;;5007422;28;20049;-69
2021/04/07 00:25:42;;;;;;;8.77;4.60;;;-0.10;33.80;;;;;;5013014;28;20060;-69
2021/04/07 00:28:10;;;;;;;9.75;5.10;;;0.10;34.40;;;;;;5011946;28;20128;-71
2021/04/07 00:30:38;;;;;;;7.78;5.70;;;-0.10;31.20;;;;;;5011900;28;20129;-69
2021/04/07 00:33:06;;;;;;;7.82;5.38;;;-0.10;33.00;;;;;;5006248;28;20057;-70
2021/04/07 00:35:34;;;;;;;12.15;5.72;;;-0.10;33.80;;;;;;5013212;28;20049;-69
2021/04/07 00:38:01;;;;;;;10.00;5.38;;;-0.10;34.00;;;;;;5009846;28;20057;-71
2021/04/07 00:40:28;;;;;;;7.53;4.10;;;0.00;35.50;;;;;;5010643;28;20927;-70
2021/04/07 00:42:55;;;;;;;10.05;5.28;;;0.00;35.40;;;;;;5004639;28;20085;-70
2021/04/07 00:45:23;;;;;;;9.80;5.22;;;-0.10;35.80;;;;;;5013113;28;20066;-69
2021/04/07 00:47:50;;;;;;;10.57;5.45;;;-0.20;36.20;;;;;;5014003;28;20129;-71
2021/04/07 00:50:19;;;;;;;12.15;5.60;;;-0.20;37.90;;;;;;5010847;28;20049;-70
2021/04/07 00:52:46;;;;;;;12.50;6.38;;;-0.20;37.90;;;;;;5007871;28;20411;-69
2021/04/07 00:55:16;;;;;;;9.73;5.32;;;-0.30;37.60;;;;;;5014362;28;20074;-70
2021/04/07 00:57:44;;;;;;;8.02;5.28;;;-0.20;38.50;;;;;;5010514;28;20045;-71
2021/04/07 01:00:12;;;;;;;8.30;4.97;;;-0.20;37.90;;;;;;5013541;28;20053;-70
2021/04/07 01:02:40;;;;;;;8.82;5.03;;;-0.20;38.50;;;;;;5011228;28;20049;-71
2021/04/07 01:05:09;;;;;;;11.73;5.45;;;-0.10;38.00;;;;;;5013224;28;20109;-69
2021/04/07 01:07:36;;;;;;;7.93;5.25;;;-0.10;38.20;;;;;;5010168;28;20059;-70
2021/04/07 01:10:05;;;;;;;7.82;5.63;;;-0.20;38.60;;;;;;5011021;28;20056;-69
2021/04/07 01:12:33;;;;;;;10.05;5.40;;;-0.20;38.40;;;;;;5004018;28;20056;-68
2021/04/07 01:15:00;;;;;;;8.80;5.80;;;-0.30;36.70;;;;;;5010035;28;20746;-69
2021/04/07 01:17:27;;;;;;;11.48;6.10;;;-0.30;37.90;;;;;;5013328;28;20118;-70
2021/04/07 01:19:54;;;;;;;11.77;6.32;;;-0.40;37.70;;;;;;5014328;28;20515;-71
2021/04/07 01:22:22;;;;;;;7.72;5.32;;;-0.40;37.70;;;;;;5004435;28;20507;-71
2021/04/07 01:24:50;;;;;;;7.57;5.38;;;-0.40;37.90;;;;;;5005920;28;20050;-70
2021/04/07 01:27:17;;;;;;;10.07;5.35;;;-0.40;38.20;;;;;;5012013;28;20052;-71
2021/04/07 01:29:44;;;;;;;10.73;5.60;;;-0.40;38.10;;;;;;5013805;28;20045;-70
2021/04/07 01:32:11;;;;;;;8.98;5.47;;;-0.50;37.20;;;;;;5007988;28;20045;-70
2021/04/07 01:34:43;;;;;;;10.35;5.25;;;-0.50;36.20;;;;;;5009571;28;20076;-71
2021/04/07 01:37:12;;;;;;;11.07;6.05;;;-0.50;37.60;;;;;;5010767;28;20108;-70
2021/04/07 01:39:39;;;;;;;9.70;5.78;;;-0.50;36.30;;;;;;5009705;28;20057;-71
2021/04/07 01:42:08;;;;;;;11.57;6.45;;;-0.50;36.50;;;;;;5009045;28;20045;-71
2021/04/07 01:44:37;;;;;;;9.65;6.40;;;-0.50;36.20;;;;;;5010101;28;20050;-70
2021/04/07 01:47:05;;;;;;;9.07;6.05;;;-0.50;36.10;;;;;;5010034;28;20136;-70
2021/04/07 01:49:33;;;;;;;12.55;6.40;;;-0.60;35.20;;;;;;5011850;28;20045;-69
2021/04/07 01:52:00;;;;;;;9.82;6.30;;;-0.60;35.70;;;;;;5012320;28;20053;-69
2021/04/07 01:54:27;;;;;;;13.45;6.60;;;-0.50;35.80;;;;;;5004667;28;20050;-69
2021/04/07 01:56:56;;;;;;;12.73;6.50;;;-0.60;35.80;;;;;;5012403;28;20060;-69
2021/04/07 01:59:25;;;;;;;9.50;6.25;;;-0.60;35.50;;;;;;5010180;28;20052;-71
2021/04/07 02:01:53;;;;;;;11.70;6.32;;;-0.60;35.40;;;;;;5013376;28;20478;-69
2021/04/07 02:04:21;;;;;;;13.23;6.75;;;-0.60;34.90;;;;;;5012724;28;20053;-70
2021/04/07 02:06:54;;;;;;;;;;;-0.60;33.70;;;;;;5012474;28;20089;-71
2021/04/07 02:09:22;;;;;;;12.38;7.45;;;-0.60;34.60;;;;;;5014245;28;20371;-70
2021/04/07 02:11:51;;;;;;;12.60;7.57;;;-0.60;35.50;;;;;;5013037;28;20416;-70
2021/04/07 02:14:19;;;;;;;12.93;7.60;;;-0.70;35.10;;;;;;5012482;28;20049;-69
2021/04/07 02:16:52;;;;;;;15.77;8.38;;;-0.70;34.80;;;;;;5013967;28;20073;-70
2021/04/07 02:19:20;;;;;;;15.13;8.45;;;-0.70;34.30;;;;;;5016461;28;20128;-70
2021/04/07 02:21:52;;;;;;;13.85;8.00;;;-0.70;33.30;;;;;;5012048;28;20052;-68
2021/04/07 02:24:19;;;;;;;15.57;8.00;;;-0.60;34.30;;;;;;5009870;28;20054;-69
2021/04/07 02:26:46;;;;;;;17.38;8.50;;;-0.60;33.40;;;;;;5011125;28;20046;-70
2021/04/07 02:29:13;;;;;;;13.35;9.15;;;-0.60;32.10;;;;;;5016221;28;20046;-69
2021/04/07 02:31:40;;;;;;;14.35;8.80;;;-0.60;32.10;;;;;;5014937;28;20058;-68
2021/04/07 02:34:08;;;;;;;19.27;8.40;;;-0.60;30.80;;;;;;5013780;28;20049;-69
2021/04/07 02:36:35;;;;;;;13.77;7.97;;;-0.50;31.30;;;;;;5012538;28;20061;-71
2021/04/07 02:39:02;;;;;;;15.52;8.13;;;-0.50;29.60;;;;;;5014516;28;20056;-71
2021/04/07 02:41:29;;;;;;;13.88;8.05;;;-0.40;29.90;;;;;;5012421;28;20041;-71
2021/04/07 02:43:56;;;;;;;15.15;8.82;;;-0.40;28.20;;;;;;5011082;28;20049;-71
2021/04/07 02:46:23;;;;;;;16.60;8.75;;;-0.40;27.80;;;;;;5013559;28;20052;-71
2021/04/07 02:48:50;;;;;;;13.73;8.00;;;-0.40;28.50;;;;;;5014627;28;20084;-70
2021/04/07 02:51:18;;;;;;;13.23;8.02;;;-0.30;28.60;;;;;;5014435;28;20065;-70
2021/04/07 02:53:44;;;;;;;16.83;8.57;;;-0.30;26.40;;;;;;5007970;28;20518;-70
2021/04/07 02:56:12;;;;;;;13.52;8.18;;;-0.30;27.80;;;;;;5011363;28;20050;-71
2021/04/07 02:58:38;;;;;;;12.57;8.55;;;-0.30;27.10;;;;;;5018267;28;20474;-70
2021/04/07 03:01:06;;;;;;;13.68;7.85;;;-0.30;26.40;;;;;;5014520;28;20062;-70
2021/04/07 03:03:33;;;;;;;14.63;7.90;;;-0.20;26.40;;;;;;5010215;28;20045;-70
2021/04/07 03:06:00;;;;;;;11.18;7.65;;;-0.20;26.40;;;;;;5011960;28;20050;-70
2021/04/07 03:08:27;;;;;;;11.20;7.40;;;-0.20;24.80;;;;;;5014312;28;20046;-71
2021/04/07 03:10:54;;;;;;;13.90;7.80;;;-0.20;25.20;;;;;;5011888;28;20053;-71
2021/04/07 03:13:21;;;;;;;12.13;6.72;;;-0.20;25.20;;;;;;5010002;28;20137;-71
2021/04/07 03:15:48;;;;;;;13.00;7.03;;;-0.10;24.40;;;;;;5013636;28;20060;-71
2021/04/07 03:18:15;;;;;;;11.63;6.82;;;-0.20;22.80;;;;;;5010725;28;20057;-71
2021/04/07 03:20:42;;;;;;;11.65;7.25;;;-0.10;23.30;;;;;;5012069;28;20058;-71
2021/04/07 03:23:09;;;;;;;13.48;7.20;;;-0.10;23.20;;;;;;5006579;28;21364;-70
2021/04/07 03:25:37;;;;;;;11.68;6.75;;;0.00;23.70;;;;;;5012560;28;20053;-72
2021/04/07 03:28:04;;;;;;;12.02;6.72;;;-0.10;21.80;;;;;;5008703;28;20049;-70
2021/04/07 03:30:48;;;;;;;9.48;6.47;;;-0.10;22.50;;;;;;5011146;28;20065;-69
2021/04/07 03:33:15;;;;;;;8.88;6.03;;;-0.10;22.80;;;;;;5008471;28;20049;-69
2021/04/07 03:35:42;;;;;;;10.60;6.60;;;-0.10;21.40;;;;;;5013262;28;20057;-70
2021/04/07 03:38:10;;;;;;;11.15;6.60;;;-0.10;22.30;;;;;;5012091;28;20049;-69
2021/04/07 03:40:38;;;;;;;8.57;5.57;;;-0.10;21.30;;;;;;5013252;28;20124;-70
2021/04/07 03:43:06;;;;;;;9.60;5.78;;;-0.10;21.20;;;;;;5006758;28;20050;-69
2021/04/07 03:45:33;;;;;;;8.57;5.50;;;0.00;21.60;;;;;;5013397;28;20058;-69
2021/04/07 03:48:00;;;;;;;10.40;6.00;;;-0.10;20.70;;;;;;5012143;28;20049;-69
2021/04/07 03:50:29;;;;;;;11.38;5.70;;;-0.10;19.80;;;;;;5010897;28;20042;-71
2021/04/07 03:52:56;;;;;;;10.88;5.60;;;-0.10;19.80;;;;;;5008352;28;20056;-71
2021/04/07 03:55:23;;;;;;;9.88;4.72;;;0.00;19.90;;;;;;5012028;28;20050;-69
2021/04/07 03:57:50;;;;;;;8.50;5.30;;;0.00;19.90;;;;;;5013214;28;20050;-69
2021/04/07 04:00:19;;;;;;;8.65;5.10;;;0.00;19.90;;;;;;5011483;28;20057;-70
2021/04/07 04:02:45;;;;;;;9.20;5.60;;;0.00;19.90;;;;;;5005988;28;20081;-68
2021/04/07 04:05:13;;;;;;;8.63;5.07;;;-0.10;19.80;;;;;;5014775;28;20683;-69
2021/04/07 04:07:40;;;;;;;8.65;5.07;;;-0.10;19.80;;;;;;5010051;28;20050;-70
2021/04/07 04:10:08;;;;;;;8.25;5.00;;;0.00;19.90;;;;;;5013598;28;20050;-69
2021/04/07 04:12:34;;;;;;;6.85;4.70;;;-0.10;18.70;;;;;;5007668;28;20061;-69
2021/04/07 04:15:03;;;;;;;9.35;5.15;;;-0.10;17.80;;;;;;5009700;28;20101;-70
2021/04/07 04:17:29;;;;;;;9.02;5.32;;;-0.10;18.50;;;;;;5011529;28;20048;-69
2021/04/07 04:19:56;;;;;;;12.93;7.00;;;0.00;18.80;;;;;;5013377;28;20073;-71
2021/04/07 04:22:23;;;;;;;10.48;5.45;;;0.00;18.40;;;;;;5006747;28;20137;-71
2021/04/07 04:24:50;;;;;;;11.93;5.43;;;0.00;18.10;;;;;;5010628;28;20056;-70
2021/04/07 04:27:17;;;;;;;9.55;5.00;;;-0.10;17.30;;;;;;5011628;28;20128;-71
2021/04/07 04:29:44;;;;;;;8.15;5.07;;;-0.10;17.50;;;;;;5011568;28;20046;-72
2021/04/07 04:32:12;;;;;;;10.85;5.38;;;-0.10;17.40;;;;;;5012326;28;20056;-72
2021/04/07 04:34:39;;;;;;;12.75;6.70;;;-0.10;17.70;;;;;;5007662;28;20046;-71
2021/04/07 04:37:06;;;;;;;13.25;5.88;;;-0.10;17.00;;;;;;5010487;28;20056;-71
2021/04/07 04:39:33;;;;;;;9.75;5.68;;;-0.10;15.10;;;;;;5012773;28;20513;-71
2021/04/07 04:42:00;;;;;;;9.55;5.32;;;-0.10;16.00;;;;;;5008985;28;20112;-72
2021/04/07 04:44:27;;;;;;;8.88;5.43;;;-0.10;15.60;;;;;;5009269;28;20491;-70
2021/04/07 04:46:53;;;;;;;10.43;6.05;;;-0.10;14.50;;;;;;5012203;28;20046;-70
2021/04/07 04:49:21;;;;;;;9.00;4.82;;;-0.10;14.70;;;;;;5010381;28;20426;-71
2021/04/07 04:51:49;;;;;;;8.85;4.00;;;-0.10;13.50;;;;;;5010066;28;20511;-71
2021/04/07 04:54:17;;;;;;;8.05;4.20;;;0.00;13.00;;;;;;5010389;28;20145;-70
2021/04/07 04:56:44;;;;;;;8.07;4.05;;;0.00;13.90;;;;;;5011408;28;20052;-72
2021/04/07 04:59:11;;;;;;;8.55;4.30;;;0.00;12.90;;;;;;5009966;28;20049;-71
2021/04/07 05:01:37;;;;;;;8.02;4.22;;;0.00;12.90;;;;;;5011924;28;20045;-70
2021/04/07 05:04:05;;;;;;;7.53;4.15;;;0.00;13.00;;;;;;5009175;28;20130;-71
2021/04/07 05:06:34;;;;;;;6.10;3.78;;;-0.10;12.90;;;;;;5008270;28;20060;-70
2021/04/07 05:09:00;;;;;;;9.25;4.22;;;-0.10;12.90;;;;;;5010042;28;20068;-70
2021/04/07 05:11:27;;;;;;;6.65;3.30;;;0.10;14.30;;;;;;5011158;28;20053;-71
2021/04/07 05:13:54;;;;;;;6.55;3.35;;;0.00;12.90;;;;;;5006786;28;20046;-71
2021/04/07 05:16:21;;;;;;;5.57;3.78;;;0.10;13.00;;;;;;5010616;28;20133;-72
2021/04/07 05:18:48;;;;;;;7.53;3.35;;;0.00;12.90;;;;;;5012919;28;20053;-71
2021/04/07 05:21:15;;;;;;;6.95;3.88;;;0.10;13.00;;;;;;5010925;28;20054;-69
2021/04/07 05:23:42;;;;;;;8.10;3.60;;;0.10;13.00;;;;;;5006849;28;20049;-71
2021/04/07 05:26:09;;;;;;;5.28;3.40;;;0.10;12.30;;;;;;5014088;28;20060;-71
2021/04/07 05:28:36;;;;;;;7.78;3.90;;;0.10;13.00;;;;;;5010609;28;20057;-71
2021/04/07 05:31:04;;;;;;;8.35;3.83;;;0.20;12.20;;;;;;5011300;28;20053;-70
2021/04/07 05:33:32;;;;;;;8.98;3.72;;;0.20;10.50;;;;;;5005661;28;20042;-71
2021/04/07 05:36:04;;;;;;;8.35;3.53;;;0.20;10.70;;;;;;5015932;28;20048;-70
2021/04/07 05:38:31;;;;;;;8.95;4.65;;;0.20;11.30;;;;;;5014890;28;20510;-70
2021/04/07 05:41:00;;;;;;;7.78;3.72;;;0.20;9.90;;;;;;5014746;28;20397;-71
2021/04/07 05:43:29;;;;;;;7.53;3.63;;;0.20;9.90;;;;;;5012056;28;20050;-71
2021/04/07 05:45:56;;;;;;;8.38;4.38;;;0.20;9.60;;;;;;5012530;28;20057;-69
2021/04/07 05:48:23;;;;;;;6.10;3.78;;;0.30;9.60;;;;;;5016287;28;20085;-70
2021/04/07 05:50:51;;;;;;;6.05;3.97;;;0.30;8.60;;;;;;5015844;28;20467;-71
2021/04/07 05:53:19;;;;;;;6.53;3.50;;;0.30;9.50;;;;;;5011672;28;20053;-70
2021/04/07 05:55:47;;;;;;;6.00;4.22;;;0.30;8.00;;;;;;5013053;28;20060;-70
2021/04/07 05:58:15;;;;;;;8.13;4.43;;;0.20;8.00;;;;;;5014810;28;20046;-70
2021/04/07 06:00:43;;;;;;;8.52;3.92;;;0.40;7.20;;;;;;5013367;28;20041;-70
2021/04/07 06:03:11;;;;;;;7.05;3.90;;;0.30;7.00;;;;;;5008652;28;20061;-70
2021/04/07 06:05:39;;;;;;;5.72;3.85;;;0.40;7.60;;;;;;5012452;28;20492;-72
2021/04/07 06:08:06;;;;;;;9.43;4.35;;;0.40;6.90;;;;;;5013526;28;20052;-71
2021/04/07 06:10:36;;;;;;;6.70;4.00;;;0.60;7.50;;;;;;5015131;28;20049;-70
2021/04/07 06:13:03;;;;;;;8.40;4.15;;;0.40;5.40;;;;;;5008969;28;20064;-70
2021/04/07 06:15:32;;;;;;;11.77;4.32;;;0.50;6.10;;;;;;5012514;28;20072;-70
2021/04/07 06:18:00;;;;;;;7.80;4.20;;;0.60;6.20;;;;;;5017102;28;20050;-70
2021/04/07 06:20:29;;;;;;;6.07;4.00;;;0.40;4.50;;;;;;5012804;28;20042;-71
2021/04/07 06:22:57;;;;;;;8.27;3.70;;;0.50;5.20;;;;;;5007207;28;20050;-71
2021/04/07 06:25:25;;;;;;;7.13;3.78;;;0.60;3.60;;;;;;5015368;28;20397;-71
2021/04/07 06:27:53;;;;;;;8.77;3.72;;;0.70;2.70;;;;;;5015268;28;20132;-70
2021/04/07 06:30:24;;;;;;;8.85;3.63;;;0.80;2.00;;;;;;5017207;28;20137;-70
2021/04/07 06:32:52;;;;;;;6.38;3.33;;;0.90;2.00;;;;;;5009192;28;20041;-71
2021/04/07 06:35:19;;;;;;;7.32;3.25;;;1.00;1.70;;;;;;5013683;28;20045;-70
2021/04/07 06:37:45;;;;;;;5.53;3.42;;;0.90;1.00;;;;;;5013309;28;20091;-70
2021/04/07 06:40:13;;;;;;;7.25;3.58;;;0.80;1.40;;;;;;5016026;28;20427;-70
2021/04/07 06:42:40;;;;;;;4.78;3.10;;;0.80;1.70;;;;;;5009721;28;20486;-68
2021/04/07 06:45:08;;;;;;;9.43;3.75;;;0.80;1.10;;;;;;5012351;28;20045;-71
2021/04/07 06:47:35;;;;;;;6.78;3.63;;;0.70;1.00;;;;;;5012177;28;20568;-70
2021/04/07 06:50:03;;;;;;;8.77;3.90;;;0.60;1.00;;;;;;5014213;28;20397;-69
2021/04/07 06:52:31;;;;;;;6.85;3.30;;;0.70;1.10;;;;;;5010140;28;20042;-70
2021/04/07 06:54:58;;;;;;;5.55;3.20;;;0.60;1.00;;;;;;5011849;28;20056;-71
2021/04/07 06:57:25;;;;;;;29.17;13.80;;;0.70;1.00;;;;;;5012984;28;20814;-70
2021/04/07 06:59:52;;;;;;;9.52;3.33;;;0.80;1.20;;;;;;5012524;28;20045;-70
2021/04/07 07:02:19;;;;;;;9.75;3.63;;;1.00;1.00;;;;;;5015790;28;20474;-69
2021/04/07 07:04:46;;;;;;;5.50;3.13;;;0.90;1.00;;;;;;5021229;28;20056;-70
2021/04/07 07:07:16;;;;;;;6.50;2.97;;;0.90;1.00;;;;;;5017109;28;20060;-70
2021/04/07 07:09:52;;;;;;;5.20;2.70;;;0.90;1.00;;;;;;5017111;28;20364;-71
2021/04/07 07:12:20;;;;;;;8.82;3.55;;;1.20;1.00;;;;;;5017691;28;20575;-70
2021/04/07 07:14:48;;;;;;;4.93;3.22;;;1.40;1.00;;;;;;5019816;28;20053;-69
2021/04/07 07:17:26;;;;;;;6.57;3.72;;;1.20;1.00;;;;;;5019147;28;20057;-71
2021/04/07 07:19:53;;;;;;;5.45;2.85;;;1.40;1.00;;;;;;5017741;28;20066;-70
2021/04/07 07:22:25;;;;;;;5.43;2.67;;;1.50;1.00;;;;;;5012502;28;20050;-70
2021/04/07 07:24:54;;;;;;;4.75;2.65;;;1.70;1.00;;;;;;5017071;28;20050;-70
2021/04/07 07:27:34;;;;;;;4.13;2.10;;;1.70;1.00;;;;;;5015486;28;20100;-70
2021/04/07 07:30:00;;;;;;;4.38;2.40;;;1.50;1.00;;;;;;5022057;28;20049;-70
2021/04/07 07:32:33;;;;;;;7.05;2.83;;;2.10;1.00;;;;;;5010725;28;20492;-70
2021/04/07 07:35:08;;;;;;;6.10;2.67;;;2.20;1.00;;;;;;5008511;28;20046;-71
2021/04/07 07:37:37;;;;;;;5.30;2.50;;;2.50;1.00;;;;;;5009697;28;20575;-70
2021/04/07 07:40:05;;;;;;;5.57;2.40;;;2.50;1.00;;;;;;5014766;28;20495;-70
2021/04/07 07:42:32;;;;;;;6.15;2.90;;;2.10;1.00;;;;;;5010558;28;20053;-71
2021/04/07 07:44:59;;;;;;;7.38;2.88;;;2.40;1.00;;;;;;5011145;28;20049;-70
2021/04/07 07:47:31;;;;;;;5.93;2.63;;;2.30;1.00;;;;;;5011274;28;20092;-70
2021/04/07 07:49:59;;;;;;;4.28;2.58;;;2.30;1.00;;;;;;5015844;28;20056;-70
2021/04/07 07:52:31;;;;;;;7.47;2.55;;;2.00;1.00;;;;;;5011682;28;20467;-70
2021/04/07 07:55:00;;;;;;;5.95;2.45;;;2.00;1.00;;;;;;5011995;28;20606;-70
2021/04/07 07:57:28;;;;;;;5.25;2.75;;;2.50;1.00;;;;;;5010154;28;20054;-69
2021/04/07 07:59:57;;;;;;;4.25;2.00;;;2.60;1.00;;;;;;5014630;28;20136;-70
2021/04/07 08:02:29;;;;;;;5.65;2.33;;;2.50;1.00;;;;;;5008693;28;20049;-70
2021/04/07 08:04:56;;;;;;;5.45;2.15;;;2.80;1.00;;;;;;5007963;28;20096;-70
2021/04/07 08:07:32;;;;;;;3.22;2.00;;;3.10;1.00;;;;;;5009551;28;20128;-70
2021/04/07 08:10:00;;;;;;;4.88;1.90;;;3.00;1.00;;;;;;5012223;28;20068;-70
2021/04/07 08:12:29;;;;;;;5.53;1.73;;;2.90;1.00;;;;;;5007896;28;20396;-70
2021/04/07 08:14:56;;;;;;;7.35;2.05;;;2.90;1.00;;;;;;5011196;28;20143;-70
2021/04/07 08:17:24;;;;;;;4.10;1.88;;;2.60;1.00;;;;;;5009886;28;20427;-71
2021/04/07 08:19:52;;;;;;;4.82;1.90;;;2.10;1.00;;;;;;5008922;28;20138;-70
2021/04/07 08:22:20;;;;;;;4.57;1.77;;;2.70;1.00;;;;;;5009959;28;20046;-69
2021/04/07 08:24:47;;;;;;;4.57;2.15;;;2.70;1.00;;;;;;5010291;28;20061;-70
2021/04/07 08:27:15;;;;;;;3.80;1.83;;;2.90;1.00;;;;;;5010581;28;20410;-70
2021/04/07 08:29:42;;;;;;;7.38;2.28;;;2.60;1.00;;;;;;5010791;28;20504;-70
2021/04/07 08:32:09;;;;;;;5.47;2.00;;;2.60;1.00;;;;;;5009001;28;20048;-70
2021/04/07 08:34:37;;;;;;;8.10;2.70;;;2.40;1.00;;;;;;5009287;28;20061;-69
2021/04/07 08:37:04;;;;;;;4.10;1.95;;;2.90;1.00;;;;;;5010668;28;20057;-69
2021/04/07 08:39:41;;;;;;;4.97;2.10;;;2.60;1.00;;;;;;5011932;28;20050;-70
2021/04/07 08:42:10;;;;;;;5.72;2.30;;;2.80;1.00;;;;;;5011332;28;20363;-71
2021/04/07 08:44:43;;;;;;;7.47;2.03;;;3.00;1.00;;;;;;5010581;28;20060;-69
2021/04/07 08:47:25;;;;;;;6.68;2.40;;;3.00;1.00;;;;;;5010894;28;20045;-69
2021/04/07 08:50:01;;;;;;;5.13;2.38;;;3.10;1.00;;;;;;5011211;28;20049;-70
2021/04/07 08:52:29;;;;;;;5.75;2.30;;;3.30;1.00;;;;;;5010655;28;20496;-70
2021/04/07 08:54:58;;;;;;;4.15;2.60;;;2.90;1.00;;;;;;5008510;28;20057;-70
2021/04/07 08:57:29;;;;;;;7.68;3.20;;;2.30;1.00;;;;;;5007348;28;20128;-70
2021/04/07 08:59:58;;;;;;;5.53;2.67;;;2.70;1.00;;;;;;5009371;28;20504;-70
2021/04/07 09:02:25;;;;;;;5.90;3.08;;;1.80;1.00;;;;;;5005929;28;20165;-70
2021/04/07 09:05:04;;;;;;;5.68;2.92;;;1.80;1.00;;;;;;5007552;28;20111;-70
2021/04/07 09:07:38;;;;;;;6.70;3.15;;;1.80;1.00;;;;;;5008142;28;20046;-70
2021/04/07 09:10:13;;;;;;;7.43;3.25;;;1.70;1.50;;;;;;5009461;28;20053;-71
2021/04/07 09:12:45;;;;;;;5.63;2.80;;;1.80;1.00;;;;;;5008668;28;20132;-71
2021/04/07 09:15:19;;;;;;;5.82;3.28;;;2.20;1.00;;;;;;5009442;28;20041;-71
2021/04/07 09:17:48;;;;;;;9.68;3.33;;;1.90;1.00;;;;;;5011118;28;20129;-71
2021/04/07 09:20:35;;;;;;;5.60;3.38;;;2.30;1.00;;;;;;5009706;28;20429;-70
2021/04/07 09:23:25;;;;;;;4.70;2.92;;;2.40;1.00;;;;;;5004591;28;20243;-70
2021/04/07 09:25:54;;;;;;;8.50;3.35;;;2.40;1.00;;;;;;5003169;28;20041;-71
2021/04/07 09:28:32;;;;;;;5.75;3.13;;;2.30;1.00;;;;;;5008301;28;20067;-70
2021/04/07 09:31:13;;;;;;;6.40;2.92;;;2.80;1.00;;;;;;5010410;28;20046;-71
2021/04/07 09:33:41;;;;;;;10.48;3.33;;;2.70;1.00;;;;;;5006927;28;20058;-72
2021/04/07 09:36:09;;;;;;;6.25;3.25;;;3.30;1.00;;;;;;5010851;28;20224;-71
2021/04/07 09:38:44;;;;;;;6.10;3.30;;;3.40;1.00;;;;;;5008554;28;20065;-71
2021/04/07 09:41:12;;;;;;;11.77;3.30;;;3.20;1.00;;;;;;5010138;28;20049;-72
2021/04/07 09:43:41;;;;;;;6.20;2.92;;;3.20;1.00;;;;;;5005810;28;20044;-72
2021/04/07 09:46:09;;;;;;;7.80;2.92;;;3.10;1.00;;;;;;5008402;28;20468;-70
2021/04/07 09:48:48;;;;;;;5.95;3.03;;;3.70;1.00;;;;;;5009455;28;20145;-70
2021/04/07 09:51:33;;;;;;;8.60;2.85;;;3.30;1.00;;;;;;5010022;28;20397;-70
2021/04/07 09:54:19;;;;;;;7.28;2.70;;;3.10;1.00;;;;;;5004503;28;20057;-71
2021/04/07 09:56:57;;;;;;;4.60;2.35;;;3.40;1.00;;;;;;5008960;28;20132;-70
2021/04/07 09:59:40;;;;;;;4.80;2.45;;;3.90;1.00;;;;;;5008874;28;20077;-71
2021/04/07 10:02:09;;;;;;;4.35;2.55;;;3.50;1.00;;;;;;5007728;28;20067;-70
2021/04/07 10:04:39;;;;;;;10.60;2.70;;;3.90;1.00;;;;;;5010772;28;20112;-71
2021/04/07 10:07:17;;;;;;;7.38;3.38;;;3.60;1.00;;;;;;5008232;28;20072;-71
2021/04/07 10:09:46;;;;;;;5.28;2.55;;;3.60;1.00;;;;;;5010427;28;20058;-71
2021/04/07 10:12:14;;;;;;;5.20;2.90;;;3.10;1.00;;;;;;5007387;28;20505;-70
2021/04/07 10:14:48;;;;;;;6.38;2.78;;;2.90;1.00;;;;;;5010591;28;20046;-71
2021/04/07 10:17:16;;;;;;;5.20;2.60;;;3.20;1.00;;;;;;5009131;28;20496;-72
2021/04/07 10:19:45;;;;;;;4.05;2.70;;;3.00;1.00;;;;;;5014886;28;20566;-71
2021/04/07 10:22:19;;;;;;;8.30;2.72;;;3.00;1.00;;;;;;5008245;28;20104;-70
2021/04/07 10:24:48;;;;;;;8.60;2.92;;;3.00;1.00;;;;;;5011209;28;20045;-71
2021/04/07 10:27:20;;;;;;;5.40;2.70;;;3.20;1.00;;;;;;5014134;28;20054;-71
2021/04/07 10:29:47;;;;;;;5.70;2.55;;;2.90;1.00;;;;;;5015864;28;20046;-70
2021/04/07 10:32:16;;;;;;;6.78;3.00;;;2.80;1.00;;;;;;5011631;28;20048;-70
2021/04/07 10:34:45;;;;;;;3.88;2.17;;;3.20;1.00;;;;;;5012513;28;20053;-71
2021/04/07 10:37:13;;;;;;;7.20;3.28;;;3.30;1.00;;;;;;5013604;28;20146;-70
2021/04/07 10:39:41;;;;;;;6.30;2.90;;;3.70;1.00;;;;;;5013172;28;20052;-70
2021/04/07 10:42:09;;;;;;;4.60;2.60;;;3.40;1.00;;;;;;5008887;28;20060;-71
2021/04/07 10:44:37;;;;;;;4.13;2.20;;;3.90;1.00;;;;;;5013508;28;20073;-71
2021/04/07 10:47:14;;;;;;;7.50;3.08;;;3.90;1.00;;;;;;5013302;28;20129;-70
2021/04/07 10:49:52;;;;;;;4.00;2.60;;;3.80;1.00;;;;;;5014977;28;20488;-70
2021/04/07 10:52:30;;;;;;;5.28;2.60;;;3.80;1.00;;;;;;5013305;28;20053;-72
2021/04/07 10:54:58;;;;;;;4.35;2.67;;;4.40;1.00;;;;;;5009955;28;20045;-72
2021/04/07 10:57:35;;;;;;;6.07;2.38;;;4.10;1.00;;;;;;5014028;28;20050;-71
2021/04/07 11:00:09;;;;;;;4.80;2.03;;;4.40;1.00;;;;;;5010311;28;20081;-71
2021/04/07 11:02:42;;;;;;;4.53;1.95;;;4.20;1.00;;;;;;5010913;28;20535;-72
2021/04/07 11:05:13;;;;;;;3.95;2.30;;;4.20;1.00;;;;;;5010426;28;20046;-70
2021/04/07 11:07:40;;;;;;;4.80;2.15;;;4.10;1.00;;;;;;5013680;28;20057;-70
2021/04/07 11:10:09;;;;;;;6.72;2.28;;;4.60;1.00;;;;;;5012022;28;20141;-71
2021/04/07 11:12:36;;;;;;;2.25;1.65;;;5.00;1.00;;;;;;5012244;28;20049;-72
2021/04/07 11:15:05;;;;;;;5.82;1.77;;;4.50;1.00;;;;;;5011325;28;20053;-72
2021/04/07 11:17:32;;;;;;;3.80;1.80;;;4.70;1.00;;;;;;5013116;28;20056;-73
2021/04/07 11:19:59;;;;;;;3.70;1.75;;;4.30;1.00;;;;;;5012117;28;20504;-71
2021/04/07 11:22:26;;;;;;;4.03;1.85;;;4.50;1.00;;;;;;5015624;28;20092;-71
2021/04/07 11:24:55;;;;;;;6.43;3.28;;;4.40;1.00;;;;;;5010832;28;20052;-71
2021/04/07 11:27:22;;;;;;;7.57;2.05;;;4.40;1.00;;;;;;5013611;28;20050;-70
2021/04/07 11:29:49;;;;;;;6.05;2.10;;;4.80;1.00;;;;;;5013973;28;20393;-71
2021/04/07 11:32:17;;;;;;;3.03;1.70;;;4.80;1.00;;;;;;5009660;28;20141;-71
2021/04/07 11:35:09;;;;;;;5.10;1.75;;;4.90;1.00;;;;;;5008867;28;20065;-71
2021/04/07 11:37:42;;;;;;;8.57;2.20;;;5.20;1.00;;;;;;5012191;28;20060;-72
2021/04/07 11:40:23;;;;;;;4.82;1.70;;;5.50;1.00;;;;;;5012134;28;20045;-71
2021/04/07 11:42:59;;;;;;;6.43;1.88;;;5.20;1.00;;;;;;5009037;28;20129;-71
2021/04/07 11:45:26;;;;;;;6.53;1.50;;;5.20;1.00;;;;;;5010424;28;20050;-71
2021/04/07 11:47:53;;;;;;;5.47;2.08;;;4.50;1.00;;;;;;5012585;28;20058;-72
2021/04/07 11:50:20;;;;;;;5.60;2.30;;;4.20;1.00;;;;;;5012727;28;20045;-72
2021/04/07 11:52:48;;;;;;;5.95;2.00;;;4.70;1.00;;;;;;5008990;28;20052;-72
2021/04/07 11:55:15;;;;;;;4.75;1.60;;;4.70;1.00;;;;;;5007529;28;20143;-70
2021/04/07 11:57:42;;;;;;;5.18;2.17;;;4.50;1.00;;;;;;5011141;28;20055;-71
2021/04/07 12:00:11;;;;;;;3.50;2.13;;;4.40;1.00;;;;;;5010640;28;20049;-73
2021/04/07 12:02:40;;;;;;;8.73;2.22;;;4.50;1.00;;;;;;5011524;28;20068;-71
2021/04/07 12:05:08;;;;;;;5.25;2.33;;;3.90;1.00;;;;;;5010396;28;20143;-71
2021/04/07 12:07:35;;;;;;;4.03;2.00;;;4.10;1.00;;;;;;5012356;28;20060;-71
2021/04/07 12:10:04;;;;;;;4.85;1.95;;;3.80;1.00;;;;;;5010425;28;20060;-72
2021/04/07 12:12:31;;;;;;;5.00;2.72;;;3.50;1.00;;;;;;5006569;28;20054;-72
2021/04/07 12:14:58;;;;;;;4.88;2.00;;;4.00;1.00;;;;;;5008509;28;20058;-72
2021/04/07 12:17:25;;;;;;;4.70;2.38;;;4.00;1.00;;;;;;5009861;28;20041;-71
2021/04/07 12:19:52;;;;;;;4.13;2.00;;;3.80;1.00;;;;;;5012038;28;20049;-71
2021/04/07 12:22:20;;;;;;;8.57;2.50;;;4.20;1.00;;;;;;5020141;28;20710;-71
2021/04/07 12:24:47;;;;;;;6.03;2.63;;;4.50;1.00;;;;;;5006569;28;20050;-71
2021/04/07 12:27:15;;;;;;;8.55;2.75;;;4.60;1.00;;;;;;5008103;28;20058;-71
2021/04/07 12:29:42;;;;;;;6.53;2.13;;;4.20;1.00;;;;;;5012097;28;20144;-72
2021/04/07 12:32:09;;;;;;;4.10;1.90;;;4.70;1.00;;;;;;5004953;28;20076;-72
2021/04/07 12:34:37;;;;;;;8.13;2.00;;;4.40;1.00;;;;;;5009352;28;20085;-71
2021/04/07 12:37:04;;;;;;;5.32;2.20;;;4.20;1.00;;;;;;5009676;28;20045;-71
2021/04/07 12:39:33;;;;;;;5.60;1.77;;;4.90;1.00;;;;;;5011881;28;20145;-71
2021/04/07 12:42:01;;;;;;;10.75;2.70;;;4.70;1.00;;;;;;5014645;28;20108;-70
2021/04/07 12:44:29;;;;;;;5.18;2.70;;;4.60;1.00;;;;;;5015106;28;20132;-74
2021/04/07 12:46:56;;;;;;;4.45;1.80;;;4.90;1.00;;;;;;5010464;28;20042;-68
2021/04/07 12:49:23;;;;;;;4.38;1.90;;;5.10;1.00;;;;;;5009614;28;20080;-68
2021/04/07 12:51:50;;;;;;;4.82;2.22;;;4.90;1.00;;;;;;5006239;28;20084;-68
2021/04/07 12:54:17;;;;;;;10.30;4.47;;;4.70;1.00;;;;;;5001546;28;20046;-67
2021/04/07 12:56:44;;;;;;;6.43;1.88;;;4.00;1.00;;;;;;5009949;28;20088;-67
2021/04/07 12:59:11;;;;;;;4.75;2.05;;;3.70;1.00;;;;;;5010706;28;20500;-68
2021/04/07 13:01:39;;;;;;;5.53;2.03;;;3.70;1.00;;;;;;5006386;28;20108;-69
2021/04/07 13:04:06;;;;;;;5.85;2.10;;;3.70;1.00;;;;;;5009076;28;20049;-70
2021/04/07 13:06:33;;;;;;;3.78;1.95;;;4.00;1.00;;;;;;5009827;28;20132;-67